sensor_id;sensor_type;location;lat;lon;timestamp;temperature;humidity
21085;DHT22;34247;50.064;19.970;2022-12-29T00:00:27;21.40;21.80
21085;DHT22;34247;50.064;19.970;2022-12-29T00:01:37;21.50;21.80
21085;DHT22;34247;50.064;19.970;2022-12-29T00:02:45;21.40;21.80
21085;DHT22;34247;50.064;19.970;2022-12-29T00:03:51;21.50;21.80
21085;DHT22;34247;50.064;19.970;2022-12-29T00:05:01;21.50;21.90
21085;DHT22;34247;50.064;19.970;2022-12-29T00:06:06;21.50;21.90
21085;DHT22;34247;50.064;19.970;2022-12-29T00:07:15;21.40;21.90
21085;DHT22;34247;50.064;19.970;2022-12-29T00:08:22;21.50;21.90
21085;DHT22;34247;50.064;19.970;2022-12-29T00:09:45;21.50;21.90
21085;DHT22;34247;50.064;19.970;2022-12-29T00:10:54;21.40;21.90
21085;DHT22;34247;50.064;19.970;2022-12-29T00:12:02;21.50;22.00
21085;DHT22;34247;50.064;19.970;2022-12-29T00:13:09;21.50;21.90
21085;DHT22;34247;50.064;19.970;2022-12-29T00:14:34;21.50;21.90
21085;DHT22;34247;50.064;19.970;2022-12-29T00:15:59;21.50;22.00
21085;DHT22;34247;50.064;19.970;2022-12-29T00:17:04;21.50;21.90
21085;DHT22;34247;50.064;19.970;2022-12-29T00:18:09;21.50;21.80
21085;DHT22;34247;50.064;19.970;2022-12-29T00:19:15;21.50;21.90
21085;DHT22;34247;50.064;19.970;2022-12-29T00:20:40;21.50;22.00
21085;DHT22;34247;50.064;19.970;2022-12-29T00:22:10;21.50;22.00
21085;DHT22;34247;50.064;19.970;2022-12-29T00:23:37;21.50;21.90
21085;DHT22;34247;50.064;19.970;2022-12-29T00:25:04;21.50;22.00
21085;DHT22;34247;50.064;19.970;2022-12-29T00:26:30;21.50;21.90
21085;DHT22;34247;50.064;19.970;2022-12-29T00:28:04;21.50;22.00
21085;DHT22;34247;50.064;19.970;2022-12-29T00:29:37;21.50;21.90
21085;DHT22;34247;50.064;19.970;2022-12-29T00:31:01;21.60;21.80
21085;DHT22;34247;50.064;19.970;2022-12-29T00:32:26;21.60;21.80
21085;DHT22;34247;50.064;19.970;2022-12-29T00:33:51;21.50;21.70
21085;DHT22;34247;50.064;19.970;2022-12-29T00:35:27;21.60;21.80
21085;DHT22;34247;50.064;19.970;2022-12-29T00:36:40;21.60;21.80
21085;DHT22;34247;50.064;19.970;2022-12-29T00:37:48;21.60;21.90
21085;DHT22;34247;50.064;19.970;2022-12-29T00:39:23;21.60;21.80
21085;DHT22;34247;50.064;19.970;2022-12-29T00:40:48;21.60;21.80
21085;DHT22;34247;50.064;19.970;2022-12-29T00:42:15;21.60;21.80
21085;DHT22;34247;50.064;19.970;2022-12-29T00:43:39;21.60;21.70
21085;DHT22;34247;50.064;19.970;2022-12-29T00:45:06;21.60;21.80
21085;DHT22;34247;50.064;19.970;2022-12-29T00:46:14;21.70;21.70
21085;DHT22;34247;50.064;19.970;2022-12-29T00:47:22;21.70;21.60
21085;DHT22;34247;50.064;19.970;2022-12-29T00:48:29;21.70;21.60
21085;DHT22;34247;50.064;19.970;2022-12-29T00:49:55;21.70;21.60
21085;DHT22;34247;50.064;19.970;2022-12-29T00:51:03;21.70;21.70
21085;DHT22;34247;50.064;19.970;2022-12-29T00:52:20;21.60;21.70
21085;DHT22;34247;50.064;19.970;2022-12-29T00:53:27;21.70;21.70
21085;DHT22;34247;50.064;19.970;2022-12-29T00:54:34;21.70;21.70
21085;DHT22;34247;50.064;19.970;2022-12-29T00:55:44;21.60;21.70
21085;DHT22;34247;50.064;19.970;2022-12-29T00:56:51;21.60;21.60
21085;DHT22;34247;50.064;19.970;2022-12-29T00:57:57;21.60;21.60
21085;DHT22;34247;50.064;19.970;2022-12-29T00:59:09;21.60;21.60
21085;DHT22;34247;50.064;19.970;2022-12-29T01:00:18;21.60;21.70
21085;DHT22;34247;50.064;19.970;2022-12-29T01:01:26;21.60;21.60
21085;DHT22;34247;50.064;19.970;2022-12-29T01:02:33;21.60;21.60
21085;DHT22;34247;50.064;19.970;2022-12-29T01:03:39;21.60;21.60
21085;DHT22;34247;50.064;19.970;2022-12-29T01:04:44;21.60;21.70
21085;DHT22;34247;50.064;19.970;2022-12-29T01:05:52;21.60;21.60
21085;DHT22;34247;50.064;19.970;2022-12-29T01:07:07;21.60;21.60
21085;DHT22;34247;50.064;19.970;2022-12-29T01:08:12;21.60;21.60
21085;DHT22;34247;50.064;19.970;2022-12-29T01:09:17;21.60;21.60
21085;DHT22;34247;50.064;19.970;2022-12-29T01:10:41;21.60;21.60
21085;DHT22;34247;50.064;19.970;2022-12-29T01:11:47;21.60;21.60
21085;DHT22;34247;50.064;19.970;2022-12-29T01:12:53;21.60;21.60
21085;DHT22;34247;50.064;19.970;2022-12-29T01:13:58;21.60;21.60
21085;DHT22;34247;50.064;19.970;2022-12-29T01:15:14;21.60;21.60
21085;DHT22;34247;50.064;19.970;2022-12-29T01:16:20;21.70;22.20
21085;DHT22;34247;50.064;19.970;2022-12-29T01:17:27;21.60;21.60
21085;DHT22;34247;50.064;19.970;2022-12-29T01:18:31;21.60;21.60
21085;DHT22;34247;50.064;19.970;2022-12-29T01:19:35;21.70;21.60
21085;DHT22;34247;50.064;19.970;2022-12-29T01:20:40;21.70;21.60
21085;DHT22;34247;50.064;19.970;2022-12-29T01:21:44;21.70;21.60
21085;DHT22;34247;50.064;19.970;2022-12-29T01:22:59;21.70;21.60
21085;DHT22;34247;50.064;19.970;2022-12-29T01:24:06;21.70;21.60
21085;DHT22;34247;50.064;19.970;2022-12-29T01:25:18;21.70;21.60
21085;DHT22;34247;50.064;19.970;2022-12-29T01:26:26;21.70;21.60
21085;DHT22;34247;50.064;19.970;2022-12-29T01:27:32;21.80;21.60
21085;DHT22;34247;50.064;19.970;2022-12-29T01:28:40;21.70;21.60
21085;DHT22;34247;50.064;19.970;2022-12-29T01:29:45;21.80;21.60
21085;DHT22;34247;50.064;19.970;2022-12-29T01:30:49;21.80;21.60
21085;DHT22;34247;50.064;19.970;2022-12-29T01:31:59;21.80;21.60
21085;DHT22;34247;50.064;19.970;2022-12-29T01:34:31;21.80;21.60
21085;DHT22;34247;50.064;19.970;2022-12-29T01:35:50;21.80;21.60
21085;DHT22;34247;50.064;19.970;2022-12-29T01:36:56;21.80;21.60
21085;DHT22;34247;50.064;19.970;2022-12-29T01:38:12;21.80;21.60
21085;DHT22;34247;50.064;19.970;2022-12-29T01:39:24;21.80;21.60
21085;DHT22;34247;50.064;19.970;2022-12-29T01:40:31;21.80;21.60
21085;DHT22;34247;50.064;19.970;2022-12-29T01:41:38;21.80;21.60
21085;DHT22;34247;50.064;19.970;2022-12-29T01:42:43;21.80;21.60
21085;DHT22;34247;50.064;19.970;2022-12-29T01:43:56;21.80;21.50
21085;DHT22;34247;50.064;19.970;2022-12-29T01:45:10;21.80;21.50
21085;DHT22;34247;50.064;19.970;2022-12-29T01:49:11;21.90;21.50
21085;DHT22;34247;50.064;19.970;2022-12-29T01:50:33;21.90;21.50
21085;DHT22;34247;50.064;19.970;2022-12-29T01:51:59;21.90;21.50
21085;DHT22;34247;50.064;19.970;2022-12-29T01:53:21;21.90;21.50
21085;DHT22;34247;50.064;19.970;2022-12-29T01:55:44;21.90;21.40
21085;DHT22;34247;50.064;19.970;2022-12-29T01:56:52;21.90;21.40
21085;DHT22;34247;50.064;19.970;2022-12-29T01:58:03;22.00;21.40
21085;DHT22;34247;50.064;19.970;2022-12-29T01:59:15;22.00;21.40
21085;DHT22;34247;50.064;19.970;2022-12-29T02:00:32;22.00;21.50
21085;DHT22;34247;50.064;19.970;2022-12-29T02:01:44;22.00;21.40
21085;DHT22;34247;50.064;19.970;2022-12-29T02:02:52;22.00;21.40
21085;DHT22;34247;50.064;19.970;2022-12-29T02:03:59;22.00;21.30
21085;DHT22;34247;50.064;19.970;2022-12-29T02:05:21;22.00;21.30
21085;DHT22;34247;50.064;19.970;2022-12-29T02:06:55;22.00;21.30
21085;DHT22;34247;50.064;19.970;2022-12-29T02:08:12;22.00;21.20
21085;DHT22;34247;50.064;19.970;2022-12-29T02:09:24;22.00;21.20
21085;DHT22;34247;50.064;19.970;2022-12-29T02:10:32;22.10;21.30
21085;DHT22;34247;50.064;19.970;2022-12-29T02:11:40;22.00;21.20
21085;DHT22;34247;50.064;19.970;2022-12-29T02:12:48;22.10;21.30
21085;DHT22;34247;50.064;19.970;2022-12-29T02:13:59;22.10;21.30
21085;DHT22;34247;50.064;19.970;2022-12-29T02:15:10;22.10;21.30
21085;DHT22;34247;50.064;19.970;2022-12-29T02:20:52;22.10;21.30
21085;DHT22;34247;50.064;19.970;2022-12-29T02:24:12;22.10;21.40
21085;DHT22;34247;50.064;19.970;2022-12-29T02:27:36;22.10;21.40
21085;DHT22;34247;50.064;19.970;2022-12-29T02:30:42;22.10;21.40
21085;DHT22;34247;50.064;19.970;2022-12-29T02:34:35;22.10;21.40
21085;DHT22;34247;50.064;19.970;2022-12-29T02:36:20;22.10;21.40
21085;DHT22;34247;50.064;19.970;2022-12-29T02:45:31;22.10;21.40
21085;DHT22;34247;50.064;19.970;2022-12-29T02:46:41;22.10;21.40
21085;DHT22;34247;50.064;19.970;2022-12-29T02:48:00;22.10;21.40
21085;DHT22;34247;50.064;19.970;2022-12-29T02:49:27;22.10;21.50
21085;DHT22;34247;50.064;19.970;2022-12-29T02:52:34;22.10;21.50
21085;DHT22;34247;50.064;19.970;2022-12-29T02:53:48;22.10;21.50
21085;DHT22;34247;50.064;19.970;2022-12-29T02:55:27;22.10;21.50
21085;DHT22;34247;50.064;19.970;2022-12-29T02:56:37;22.10;21.50
21085;DHT22;34247;50.064;19.970;2022-12-29T02:57:44;22.10;21.50
21085;DHT22;34247;50.064;19.970;2022-12-29T02:58:53;22.10;21.50
21085;DHT22;34247;50.064;19.970;2022-12-29T03:00:05;22.10;21.50
21085;DHT22;34247;50.064;19.970;2022-12-29T03:02:38;22.10;21.50
21085;DHT22;34247;50.064;19.970;2022-12-29T03:10:48;22.20;21.40
21085;DHT22;34247;50.064;19.970;2022-12-29T03:13:49;22.30;21.30
21085;DHT22;34247;50.064;19.970;2022-12-29T03:15:28;22.30;21.20
21085;DHT22;34247;50.064;19.970;2022-12-29T03:17:14;22.30;21.00
21085;DHT22;34247;50.064;19.970;2022-12-29T03:19:51;22.30;21.10
21085;DHT22;34247;50.064;19.970;2022-12-29T03:23:01;22.30;21.20
21085;DHT22;34247;50.064;19.970;2022-12-29T03:24:14;22.30;21.20
21085;DHT22;34247;50.064;19.970;2022-12-29T03:25:35;22.30;21.20
21085;DHT22;34247;50.064;19.970;2022-12-29T03:26:55;22.30;21.30
21085;DHT22;34247;50.064;19.970;2022-12-29T03:28:39;22.30;21.30
21085;DHT22;34247;50.064;19.970;2022-12-29T03:29:59;22.30;21.30
21085;DHT22;34247;50.064;19.970;2022-12-29T03:31:09;22.30;21.30
21085;DHT22;34247;50.064;19.970;2022-12-29T03:32:28;22.30;21.40
21085;DHT22;34247;50.064;19.970;2022-12-29T03:33:42;22.30;21.40
21085;DHT22;34247;50.064;19.970;2022-12-29T03:34:50;22.40;21.40
21085;DHT22;34247;50.064;19.970;2022-12-29T03:36:05;22.40;21.40
21085;DHT22;34247;50.064;19.970;2022-12-29T03:37:23;22.40;21.40
21085;DHT22;34247;50.064;19.970;2022-12-29T03:38:49;22.40;21.30
21085;DHT22;34247;50.064;19.970;2022-12-29T03:40:10;22.40;21.30
21085;DHT22;34247;50.064;19.970;2022-12-29T03:41:43;22.40;21.30
21085;DHT22;34247;50.064;19.970;2022-12-29T03:43:03;22.40;21.30
21085;DHT22;34247;50.064;19.970;2022-12-29T03:44:14;22.40;21.30
21085;DHT22;34247;50.064;19.970;2022-12-29T03:45:26;22.50;21.20
21085;DHT22;34247;50.064;19.970;2022-12-29T03:46:33;22.50;21.20
21085;DHT22;34247;50.064;19.970;2022-12-29T03:47:42;22.50;21.20
21085;DHT22;34247;50.064;19.970;2022-12-29T03:48:50;22.50;21.30
21085;DHT22;34247;50.064;19.970;2022-12-29T03:49:56;22.50;21.20
21085;DHT22;34247;50.064;19.970;2022-12-29T03:51:04;22.50;21.30
21085;DHT22;34247;50.064;19.970;2022-12-29T03:52:13;22.50;21.30
21085;DHT22;34247;50.064;19.970;2022-12-29T03:53:24;22.50;21.30
21085;DHT22;34247;50.064;19.970;2022-12-29T03:54:49;22.50;21.40
21085;DHT22;34247;50.064;19.970;2022-12-29T03:55:55;22.50;21.30
21085;DHT22;34247;50.064;19.970;2022-12-29T03:57:03;22.50;21.40
21085;DHT22;34247;50.064;19.970;2022-12-29T03:58:11;22.50;21.30
21085;DHT22;34247;50.064;19.970;2022-12-29T03:59:18;22.50;21.30
21085;DHT22;34247;50.064;19.970;2022-12-29T04:00:26;22.50;21.30
21085;DHT22;34247;50.064;19.970;2022-12-29T04:01:36;22.50;21.30
21085;DHT22;34247;50.064;19.970;2022-12-29T04:02:48;22.50;21.20
21085;DHT22;34247;50.064;19.970;2022-12-29T04:03:53;22.50;21.00
21085;DHT22;34247;50.064;19.970;2022-12-29T04:04:59;22.50;21.30
21085;DHT22;34247;50.064;19.970;2022-12-29T04:06:05;22.50;21.30
21085;DHT22;34247;50.064;19.970;2022-12-29T04:07:27;22.50;21.30
21085;DHT22;34247;50.064;19.970;2022-12-29T04:08:32;22.50;21.20
21085;DHT22;34247;50.064;19.970;2022-12-29T04:09:38;22.50;21.30
21085;DHT22;34247;50.064;19.970;2022-12-29T04:10:47;22.50;21.30
21085;DHT22;34247;50.064;19.970;2022-12-29T04:11:54;22.50;21.30
21085;DHT22;34247;50.064;19.970;2022-12-29T04:12:59;22.50;21.30
21085;DHT22;34247;50.064;19.970;2022-12-29T04:14:05;22.60;21.30
21085;DHT22;34247;50.064;19.970;2022-12-29T04:15:10;22.60;21.20
21085;DHT22;34247;50.064;19.970;2022-12-29T04:16:17;22.50;21.10
21085;DHT22;34247;50.064;19.970;2022-12-29T04:17:21;22.50;21.10
21085;DHT22;34247;50.064;19.970;2022-12-29T04:18:27;22.50;21.20
21085;DHT22;34247;50.064;19.970;2022-12-29T04:19:31;22.50;21.20
21085;DHT22;34247;50.064;19.970;2022-12-29T04:20:36;22.50;21.20
21085;DHT22;34247;50.064;19.970;2022-12-29T04:21:59;22.50;21.20
21085;DHT22;34247;50.064;19.970;2022-12-29T04:23:05;22.50;21.20
21085;DHT22;34247;50.064;19.970;2022-12-29T04:24:10;22.50;21.20
21085;DHT22;34247;50.064;19.970;2022-12-29T04:25:14;22.50;21.20
21085;DHT22;34247;50.064;19.970;2022-12-29T04:26:20;22.50;21.20
21085;DHT22;34247;50.064;19.970;2022-12-29T04:27:26;22.50;21.20
21085;DHT22;34247;50.064;19.970;2022-12-29T04:28:30;22.50;21.20
21085;DHT22;34247;50.064;19.970;2022-12-29T04:29:35;22.50;21.20
21085;DHT22;34247;50.064;19.970;2022-12-29T04:30:41;22.50;21.20
21085;DHT22;34247;50.064;19.970;2022-12-29T04:31:51;22.50;21.20
21085;DHT22;34247;50.064;19.970;2022-12-29T04:32:56;22.50;21.30
21085;DHT22;34247;50.064;19.970;2022-12-29T04:34:00;22.50;21.20
21085;DHT22;34247;50.064;19.970;2022-12-29T04:35:07;22.50;21.30
21085;DHT22;34247;50.064;19.970;2022-12-29T04:36:15;22.50;21.30
21085;DHT22;34247;50.064;19.970;2022-12-29T04:37:21;22.50;21.30
21085;DHT22;34247;50.064;19.970;2022-12-29T04:38:26;22.40;21.20
21085;DHT22;34247;50.064;19.970;2022-12-29T04:39:31;22.50;21.30
21085;DHT22;34247;50.064;19.970;2022-12-29T04:40:41;22.50;21.30
21085;DHT22;34247;50.064;19.970;2022-12-29T04:41:47;22.50;21.30
21085;DHT22;34247;50.064;19.970;2022-12-29T04:42:50;22.50;21.40
21085;DHT22;34247;50.064;19.970;2022-12-29T04:43:54;22.40;21.10
21085;DHT22;34247;50.064;19.970;2022-12-29T04:44:59;22.40;21.10
21085;DHT22;34247;50.064;19.970;2022-12-29T04:46:04;22.40;21.10
21085;DHT22;34247;50.064;19.970;2022-12-29T04:47:09;22.50;21.20
21085;DHT22;34247;50.064;19.970;2022-12-29T04:48:14;22.50;21.10
21085;DHT22;34247;50.064;19.970;2022-12-29T04:49:23;22.50;21.10
21085;DHT22;34247;50.064;19.970;2022-12-29T04:50:28;22.40;21.00
21085;DHT22;34247;50.064;19.970;2022-12-29T04:51:32;22.50;21.10
21085;DHT22;34247;50.064;19.970;2022-12-29T04:52:36;22.40;21.10
21085;DHT22;34247;50.064;19.970;2022-12-29T04:53:40;22.40;21.10
21085;DHT22;34247;50.064;19.970;2022-12-29T04:54:44;22.40;21.00
21085;DHT22;34247;50.064;19.970;2022-12-29T04:55:50;22.40;21.10
21085;DHT22;34247;50.064;19.970;2022-12-29T04:56:55;22.40;21.10
21085;DHT22;34247;50.064;19.970;2022-12-29T04:57:59;22.40;21.10
21085;DHT22;34247;50.064;19.970;2022-12-29T04:59:03;22.40;21.20
21085;DHT22;34247;50.064;19.970;2022-12-29T05:00:11;22.40;21.10
21085;DHT22;34247;50.064;19.970;2022-12-29T05:01:16;22.40;21.20
21085;DHT22;34247;50.064;19.970;2022-12-29T05:02:20;22.30;21.10
21085;DHT22;34247;50.064;19.970;2022-12-29T05:03:25;22.30;21.20
21085;DHT22;34247;50.064;19.970;2022-12-29T05:04:29;22.30;21.20
21085;DHT22;34247;50.064;19.970;2022-12-29T05:05:33;22.30;21.20
21085;DHT22;34247;50.064;19.970;2022-12-29T05:06:39;22.30;21.10
21085;DHT22;34247;50.064;19.970;2022-12-29T05:07:43;22.30;21.20
21085;DHT22;34247;50.064;19.970;2022-12-29T05:08:48;22.30;21.10
21085;DHT22;34247;50.064;19.970;2022-12-29T05:09:51;22.30;21.10
21085;DHT22;34247;50.064;19.970;2022-12-29T05:10:56;22.30;21.00
21085;DHT22;34247;50.064;19.970;2022-12-29T05:12:00;22.30;20.90
21085;DHT22;34247;50.064;19.970;2022-12-29T05:13:05;22.40;20.80
21085;DHT22;34247;50.064;19.970;2022-12-29T05:14:10;22.50;20.80
21085;DHT22;34247;50.064;19.970;2022-12-29T05:15:13;22.50;20.60
21085;DHT22;34247;50.064;19.970;2022-12-29T05:16:17;22.50;20.50
21085;DHT22;34247;50.064;19.970;2022-12-29T05:17:20;22.60;20.40
21085;DHT22;34247;50.064;19.970;2022-12-29T05:18:29;22.60;20.30
21085;DHT22;34247;50.064;19.970;2022-12-29T05:19:33;22.60;20.30
21085;DHT22;34247;50.064;19.970;2022-12-29T05:20:38;22.70;20.30
21085;DHT22;34247;50.064;19.970;2022-12-29T05:21:43;22.70;20.30
21085;DHT22;34247;50.064;19.970;2022-12-29T05:22:47;22.60;20.30
21085;DHT22;34247;50.064;19.970;2022-12-29T05:23:52;22.60;20.80
21085;DHT22;34247;50.064;19.970;2022-12-29T05:24:55;22.60;20.40
21085;DHT22;34247;50.064;19.970;2022-12-29T05:26:00;22.60;20.40
21085;DHT22;34247;50.064;19.970;2022-12-29T05:27:04;22.60;20.40
21085;DHT22;34247;50.064;19.970;2022-12-29T05:28:11;22.60;20.40
21085;DHT22;34247;50.064;19.970;2022-12-29T05:29:17;22.60;20.30
21085;DHT22;34247;50.064;19.970;2022-12-29T05:30:22;22.60;20.30
21085;DHT22;34247;50.064;19.970;2022-12-29T05:31:26;22.60;20.30
21085;DHT22;34247;50.064;19.970;2022-12-29T05:32:32;22.60;20.30
21085;DHT22;34247;50.064;19.970;2022-12-29T05:33:37;22.60;20.30
21085;DHT22;34247;50.064;19.970;2022-12-29T05:34:41;22.60;20.30
21085;DHT22;34247;50.064;19.970;2022-12-29T05:35:46;22.50;20.30
21085;DHT22;34247;50.064;19.970;2022-12-29T05:36:49;22.50;20.40
21085;DHT22;34247;50.064;19.970;2022-12-29T05:37:53;22.50;20.50
21085;DHT22;34247;50.064;19.970;2022-12-29T05:38:56;22.50;20.60
21085;DHT22;34247;50.064;19.970;2022-12-29T05:40:01;22.50;20.60
21085;DHT22;34247;50.064;19.970;2022-12-29T05:41:04;22.50;20.60
21085;DHT22;34247;50.064;19.970;2022-12-29T05:42:08;22.50;20.70
21085;DHT22;34247;50.064;19.970;2022-12-29T05:43:12;22.50;20.70
21085;DHT22;34247;50.064;19.970;2022-12-29T05:44:16;22.50;20.70
21085;DHT22;34247;50.064;19.970;2022-12-29T05:45:20;22.40;20.70
21085;DHT22;34247;50.064;19.970;2022-12-29T05:46:23;22.40;20.70
21085;DHT22;34247;50.064;19.970;2022-12-29T05:47:29;22.50;20.80
21085;DHT22;34247;50.064;19.970;2022-12-29T05:48:35;22.50;20.80
21085;DHT22;34247;50.064;19.970;2022-12-29T05:49:40;22.50;20.80
21085;DHT22;34247;50.064;19.970;2022-12-29T05:50:51;22.50;20.80
21085;DHT22;34247;50.064;19.970;2022-12-29T05:51:55;22.50;20.80
21085;DHT22;34247;50.064;19.970;2022-12-29T05:53:00;22.50;20.80
21085;DHT22;34247;50.064;19.970;2022-12-29T05:54:04;22.50;20.80
21085;DHT22;34247;50.064;19.970;2022-12-29T05:55:08;22.50;20.70
21085;DHT22;34247;50.064;19.970;2022-12-29T05:56:12;22.50;20.60
21085;DHT22;34247;50.064;19.970;2022-12-29T05:57:16;22.60;20.60
21085;DHT22;34247;50.064;19.970;2022-12-29T05:58:19;22.60;20.60
21085;DHT22;34247;50.064;19.970;2022-12-29T05:59:23;22.60;20.60
21085;DHT22;34247;50.064;19.970;2022-12-29T06:00:27;22.60;20.70
21085;DHT22;34247;50.064;19.970;2022-12-29T06:01:33;22.60;20.70
21085;DHT22;34247;50.064;19.970;2022-12-29T06:02:40;22.60;20.70
21085;DHT22;34247;50.064;19.970;2022-12-29T06:03:44;22.60;20.70
21085;DHT22;34247;50.064;19.970;2022-12-29T06:04:51;22.60;20.60
21085;DHT22;34247;50.064;19.970;2022-12-29T06:05:55;22.60;20.60
21085;DHT22;34247;50.064;19.970;2022-12-29T06:07:00;22.60;20.60
21085;DHT22;34247;50.064;19.970;2022-12-29T06:08:04;22.60;20.70
21085;DHT22;34247;50.064;19.970;2022-12-29T06:09:12;22.60;20.70
21085;DHT22;34247;50.064;19.970;2022-12-29T06:10:21;22.60;20.70
21085;DHT22;34247;50.064;19.970;2022-12-29T06:11:26;22.60;21.20
21085;DHT22;34247;50.064;19.970;2022-12-29T06:12:31;22.60;20.70
21085;DHT22;34247;50.064;19.970;2022-12-29T06:13:36;22.60;20.70
21085;DHT22;34247;50.064;19.970;2022-12-29T06:14:42;22.60;20.70
21085;DHT22;34247;50.064;19.970;2022-12-29T06:15:48;22.60;20.80
21085;DHT22;34247;50.064;19.970;2022-12-29T06:16:53;22.50;20.80
21085;DHT22;34247;50.064;19.970;2022-12-29T06:17:56;22.50;20.70
21085;DHT22;34247;50.064;19.970;2022-12-29T06:19:00;22.60;20.80
21085;DHT22;34247;50.064;19.970;2022-12-29T06:20:06;22.50;20.80
21085;DHT22;34247;50.064;19.970;2022-12-29T06:21:11;22.50;20.80
21085;DHT22;34247;50.064;19.970;2022-12-29T06:22:17;22.50;20.80
21085;DHT22;34247;50.064;19.970;2022-12-29T06:23:21;22.50;20.70
21085;DHT22;34247;50.064;19.970;2022-12-29T06:24:27;22.50;20.80
21085;DHT22;34247;50.064;19.970;2022-12-29T06:25:32;22.50;20.80
21085;DHT22;34247;50.064;19.970;2022-12-29T06:26:38;22.50;20.80
21085;DHT22;34247;50.064;19.970;2022-12-29T06:27:43;22.50;20.80
21085;DHT22;34247;50.064;19.970;2022-12-29T06:28:51;22.50;20.80
21085;DHT22;34247;50.064;19.970;2022-12-29T06:29:58;22.50;20.80
21085;DHT22;34247;50.064;19.970;2022-12-29T06:31:04;22.50;20.90
21085;DHT22;34247;50.064;19.970;2022-12-29T06:32:12;22.50;20.90
21085;DHT22;34247;50.064;19.970;2022-12-29T06:33:17;22.50;20.90
21085;DHT22;34247;50.064;19.970;2022-12-29T06:34:22;22.50;20.90
21085;DHT22;34247;50.064;19.970;2022-12-29T06:35:27;22.50;21.40
21085;DHT22;34247;50.064;19.970;2022-12-29T06:36:34;22.50;20.90
21085;DHT22;34247;50.064;19.970;2022-12-29T06:37:37;22.50;20.90
21085;DHT22;34247;50.064;19.970;2022-12-29T06:38:41;22.50;20.90
21085;DHT22;34247;50.064;19.970;2022-12-29T06:39:46;22.50;21.00
21085;DHT22;34247;50.064;19.970;2022-12-29T06:40:52;22.50;21.00
21085;DHT22;34247;50.064;19.970;2022-12-29T06:41:55;22.50;21.10
21085;DHT22;34247;50.064;19.970;2022-12-29T06:42:59;22.50;21.10
21085;DHT22;34247;50.064;19.970;2022-12-29T06:44:03;22.50;21.10
21085;DHT22;34247;50.064;19.970;2022-12-29T06:45:08;22.50;20.80
21085;DHT22;34247;50.064;19.970;2022-12-29T06:46:19;22.50;21.20
21085;DHT22;34247;50.064;19.970;2022-12-29T06:47:24;22.50;21.20
21085;DHT22;34247;50.064;19.970;2022-12-29T06:48:28;22.40;21.20
21085;DHT22;34247;50.064;19.970;2022-12-29T06:49:32;22.40;21.20
21085;DHT22;34247;50.064;19.970;2022-12-29T06:50:41;22.40;21.20
21085;DHT22;34247;50.064;19.970;2022-12-29T06:51:45;22.40;21.30
21085;DHT22;34247;50.064;19.970;2022-12-29T06:52:49;22.40;21.30
21085;DHT22;34247;50.064;19.970;2022-12-29T06:53:53;22.40;21.40
21085;DHT22;34247;50.064;19.970;2022-12-29T06:54:57;22.40;21.40
21085;DHT22;34247;50.064;19.970;2022-12-29T06:56:02;22.30;21.50
21085;DHT22;34247;50.064;19.970;2022-12-29T06:57:16;22.30;21.50
21085;DHT22;34247;50.064;19.970;2022-12-29T06:58:22;22.30;21.50
21085;DHT22;34247;50.064;19.970;2022-12-29T06:59:25;22.30;21.40
21085;DHT22;34247;50.064;19.970;2022-12-29T07:00:30;22.30;21.50
21085;DHT22;34247;50.064;19.970;2022-12-29T07:01:34;22.30;21.50
21085;DHT22;34247;50.064;19.970;2022-12-29T07:02:40;22.30;21.50
21085;DHT22;34247;50.064;19.970;2022-12-29T07:03:46;22.30;21.60
21085;DHT22;34247;50.064;19.970;2022-12-29T07:04:57;22.30;21.60
21085;DHT22;34247;50.064;19.970;2022-12-29T07:06:02;22.30;21.60
21085;DHT22;34247;50.064;19.970;2022-12-29T07:07:07;22.30;21.60
21085;DHT22;34247;50.064;19.970;2022-12-29T07:08:12;22.30;21.60
21085;DHT22;34247;50.064;19.970;2022-12-29T07:09:16;22.30;21.70
21085;DHT22;34247;50.064;19.970;2022-12-29T07:10:22;22.30;21.70
21085;DHT22;34247;50.064;19.970;2022-12-29T07:11:26;22.30;21.70
21085;DHT22;34247;50.064;19.970;2022-12-29T07:12:31;22.20;21.80
21085;DHT22;34247;50.064;19.970;2022-12-29T07:13:36;22.30;21.70
21085;DHT22;34247;50.064;19.970;2022-12-29T07:14:41;22.30;21.70
21085;DHT22;34247;50.064;19.970;2022-12-29T07:15:45;22.20;21.70
21085;DHT22;34247;50.064;19.970;2022-12-29T07:16:53;22.20;21.70
21085;DHT22;34247;50.064;19.970;2022-12-29T07:18:00;22.20;21.80
21085;DHT22;34247;50.064;19.970;2022-12-29T07:19:08;22.20;21.80
21085;DHT22;34247;50.064;19.970;2022-12-29T07:20:15;22.20;21.80
21085;DHT22;34247;50.064;19.970;2022-12-29T07:21:30;22.20;21.80
21085;DHT22;34247;50.064;19.970;2022-12-29T07:22:36;22.20;21.90
21085;DHT22;34247;50.064;19.970;2022-12-29T07:23:46;22.20;21.90
21085;DHT22;34247;50.064;19.970;2022-12-29T07:24:50;22.20;21.80
21085;DHT22;34247;50.064;19.970;2022-12-29T07:26:04;22.20;21.90
21085;DHT22;34247;50.064;19.970;2022-12-29T07:27:13;22.20;21.80
21085;DHT22;34247;50.064;19.970;2022-12-29T07:28:21;22.20;21.80
21085;DHT22;34247;50.064;19.970;2022-12-29T07:29:27;22.20;21.60
21085;DHT22;34247;50.064;19.970;2022-12-29T07:30:33;22.20;21.90
21085;DHT22;34247;50.064;19.970;2022-12-29T07:31:38;22.20;22.00
21085;DHT22;34247;50.064;19.970;2022-12-29T07:32:45;22.20;22.00
21085;DHT22;34247;50.064;19.970;2022-12-29T07:33:50;22.20;22.10
21085;DHT22;34247;50.064;19.970;2022-12-29T07:34:58;22.20;22.10
21085;DHT22;34247;50.064;19.970;2022-12-29T07:36:02;22.20;22.10
21085;DHT22;34247;50.064;19.970;2022-12-29T07:37:06;22.20;22.10
21085;DHT22;34247;50.064;19.970;2022-12-29T07:38:13;22.20;22.10
21085;DHT22;34247;50.064;19.970;2022-12-29T07:39:18;22.20;22.00
21085;DHT22;34247;50.064;19.970;2022-12-29T07:40:26;22.20;22.00
21085;DHT22;34247;50.064;19.970;2022-12-29T07:41:31;22.20;22.00
21085;DHT22;34247;50.064;19.970;2022-12-29T07:42:35;22.20;22.40
21085;DHT22;34247;50.064;19.970;2022-12-29T07:43:39;22.20;22.00
21085;DHT22;34247;50.064;19.970;2022-12-29T07:44:44;22.30;22.10
21085;DHT22;34247;50.064;19.970;2022-12-29T07:45:48;22.30;22.10
21085;DHT22;34247;50.064;19.970;2022-12-29T07:46:51;22.30;22.00
21085;DHT22;34247;50.064;19.970;2022-12-29T07:47:59;22.30;22.00
21085;DHT22;34247;50.064;19.970;2022-12-29T07:49:05;22.30;22.00
21085;DHT22;34247;50.064;19.970;2022-12-29T07:50:14;22.30;22.10
21085;DHT22;34247;50.064;19.970;2022-12-29T07:51:18;22.30;22.10
21085;DHT22;34247;50.064;19.970;2022-12-29T07:52:23;22.30;22.10